Brookings, South Dakota
Current Conditions -  °F | °C
As of 6:55 AM on Wednesday 26 Nov 2014 (Local Time) from KMDS Reporting Station
Light Rain Light Rain  
Wind Chill:   Ceiling: 3500
Heat Index: 19°   Visibility: 7mi
Dew Point: 19°   Wind: 24mph
Humidity: 100%   Direction: 20°NNE
Pressure: 30.03"   Gusts: 35mph
Location:  44.31°N, 96.8°W
Report Text: KMDS 261255Z AUTO 02021G30KT 7SM -RA SCT012 OVC035 M07/M07 A3003 RMK AO2 P0001
Loading
Personal Weather Stations






























Interactive Weather Map New forecast layout! Learn more

10-Day Weather Forecast

Advertisements
Track Severe Weather on mobile